Carson Valley, Nevada Weather observations

Data are for 10 minute period ending at time listed.
 Day   Time   Solar   Ave.   Ave.  Ave.  Vector  Max.   Baro.   Total    
  of    of     Rad.   Air    Rel.  Wind   Wind   Wind  Press.  Precip.   
Year   Day            Temp.  Hum.  Speed  Dir.   Gust                    
2016   (PST)  Kw/m2    F      %     mph   deg.    mph    mb.     in.     
-------------------------------------------------------------------------
 149   21:00   0.00   53.3    67    1.7   290     2.3   856.0    0.00 
 149   21:10   0.00   53.5    71    2.7   122     4.4   856.0    0.00 
 149   21:20   0.00   49.8    81    2.9    97     4.4   856.0    0.00 
 149   21:30   0.00   48.9    83    2.9    82     3.9   856.0    0.00 
 149   21:40   0.00   48.3    85    3.0    80     4.3   856.0    0.00 
 149   21:50   0.00   47.0    86    2.0   219     3.9   856.1    0.00 
 149   22:00   0.00   48.6    86    2.0   271     2.6   856.1    0.00 
 149   22:10   0.00   47.9    83    2.4   344     3.0   856.1    0.00 
 149   22:20   0.00   46.9    86    2.6   348     4.4   856.2    0.00 
 149   22:30   0.00   47.3    88    1.6    46     5.6   856.2    0.00 
 149   22:40   0.00   47.5    88    1.4    49     2.3   856.2    0.00 
 149   22:50   0.00   47.1    87    0.6    14     1.7   856.1    0.00 
 149   23:00   0.00   47.1    88    2.0   330     3.0   856.2    0.00 
 149   23:10   0.00   47.6    86    2.7    23     3.7   856.1    0.00 
 149   23:20   0.00   47.2    86    2.2    49     3.1   856.1    0.00 
 149   23:30   0.00   45.8    85    0.9   280     2.0   856.1    0.00 
 149   23:40   0.00   45.5    88    1.0    75     3.0   856.1    0.00 
 149   23:50   0.00   45.3    87    3.6    77     4.5   856.1    0.00 
 150    0:00   0.00   44.3    86    2.3   164     4.6   856.3    0.00 
 150    0:10   0.00   43.8    87    1.4   241     3.0   856.3    0.00 
 150    0:20   0.00   43.6    88    2.4   356     2.9   856.3    0.00 
 150    0:30   0.00   44.2    89    2.7    54     3.7   856.2    0.00 
 150    0:40   0.00   43.0    89    3.3    87     5.4   856.2    0.00 
 150    0:50   0.00   42.8    91    2.0   142     3.9   856.3    0.00 
 150    1:00   0.00   43.0    90    2.7   206     3.9   856.3    0.00 
 150    1:10   0.00   42.5    92    2.4    19     4.4   856.3    0.00 
 150    1:20   0.00   42.6    93    2.3   137     4.7   856.3    0.00 
 150    1:30   0.00   43.2    95    2.0   156     2.7   856.3    0.00 
 150    1:40   0.00   44.1    96    1.9   183     2.6   856.3    0.00 
 150    1:50   0.00   41.8    91    2.3   302     4.2   856.4    0.00 
 150    2:00   0.00   39.7    94    2.0   348     3.3   856.5    0.00 
 150    2:10   0.00   41.3    97    1.4   342     1.9   856.5    0.00 
 150    2:20   0.00   40.2    94    2.3   323     3.7   856.5    0.00 
 150    2:30   0.00   38.6    96    2.4   352     3.7   856.5    0.00 
 150    2:40   0.00   40.1    98    1.9    60     3.0   856.5    0.00 
 150    2:50   0.00   41.1    98    3.1    73     4.0   856.5    0.00 
 150    3:00   0.00   41.1    98    1.9    93     2.8   856.6    0.00 
 150    3:10   0.00   39.9    96    1.6   268     3.6   856.6    0.00 
 150    3:20   0.00   39.2    99    2.2   272     3.1   856.6    0.00 
 150    3:30   0.00   39.9   100    0.9   269     2.3   856.6    0.00 
 150    3:40   0.00   39.3   100    1.2    87     2.6   856.7    0.00 
 150    3:50   0.00   40.2   100    0.4   309     2.0   856.8    0.00 
 150    4:00   0.00   40.7    99    2.3   358     3.0   856.8    0.00 
 150    4:10   0.00   39.4    99    3.0    76     4.2   856.9    0.00 
 150    4:20   0.00   38.8    99    1.4   107     1.9   857.1    0.00 
 150    4:30   0.00   38.4    99    1.9   118     2.6   857.2    0.00 
 150    4:40   0.00   38.2    99    2.3   140     3.1   857.3    0.00 
 150    4:50   0.01   38.4    99    1.0   104     2.8   857.3    0.00 
 150    5:00   0.02   37.2    98    2.0   271     3.1   857.4    0.00 
 150    5:10   0.05   37.2   100    1.6   304     2.9   857.5    0.00 
 150    5:20   0.08   39.0   100    0.2   337     1.0   857.6    0.00 
 150    5:30   0.11   40.8   100    0.4   334     1.3   857.6    0.00 
 150    5:40   0.14   42.4    98    0.7    17     1.8   857.6    0.00 
 150    5:50   0.16   44.6    92    1.8    83     3.6   857.6    0.00 
 150    6:00   0.19   45.1    89    1.0   104     3.3   857.5    0.00 
 150    6:10   0.22   45.8    87    0.8   268     1.6   857.5    0.00 
 150    6:20   0.25   46.9    85    0.7   247     1.6   857.6    0.00 
 150    6:30   0.28   48.5    82    0.5   259     1.8   857.6    0.00 
 150    6:40   0.31   49.3    80    0.8   286     1.8   857.8    0.00 
 150    6:50   0.34   50.5    77    1.1   322     2.5   857.8    0.00 
 150    7:00   0.38   51.2    76    1.7   311     3.1   857.9    0.00 
 150    7:10   0.41   52.9    71    0.7   340     1.7   858.0    0.00 
 150    7:20   0.45   55.1    68    1.0   333     2.5   858.0    0.00 
 150    7:30   0.48   55.6    63    0.5   203     2.5   858.2    0.00 
 150    7:40   0.51   57.8    60    0.8   155     2.5   858.3    0.00 
 150    7:50   0.55   58.0    60    1.1   349     2.9   858.4    0.00 
 150    8:00   0.58   59.3    59    1.6    23     3.2   858.4    0.00 
 150    8:10   0.61   60.1    58    1.4   344     3.8   858.6    0.00 
 150    8:20   0.64   60.6    57    1.6   333     4.2   858.5    0.00 
 150    8:30   0.67   61.6    56    1.0   321     3.0   858.5    0.00 
 150    8:40   0.70   63.4    53    1.6    54     3.6   858.5    0.00 
 150    8:50   0.73   64.3    53    1.5     5     3.6   858.5    0.00 
 150    9:00   0.76   65.3    50    2.1    11     4.7   858.5    0.00 
 150    9:10   0.78   65.7    48    2.2    52     4.5   858.4    0.00 
 150    9:20   0.81   66.3    46    1.6   350     3.7   858.4    0.00 
 150    9:30   0.83   68.0    42    1.2    77     3.4   858.4    0.00 
 150    9:40   0.85   68.9    39    1.3    54     3.5   858.3    0.00 
 150    9:50   0.87   69.8    38    1.5    68     5.0   858.3    0.00 
 150   10:00   0.89   69.7    38    2.8    26     6.8   858.2    0.00 
 150   10:10   0.91   70.0    38    2.3    32     4.5   858.1    0.00 
 150   10:20   0.92   70.4    34    2.4    55     6.6   858.0    0.00 
 150   10:30   0.94   71.2    34    1.7    58     4.7   858.0    0.00 
 150   10:40   0.95   72.4    32    2.2    55     4.8   857.9    0.00 
 150   10:50   0.96   72.4    30    2.5    45     6.2   857.8    0.00 
 150   11:00   0.97   72.6    31    2.0    80     5.1   857.7    0.00 
 150   11:10   0.98   73.6    30    1.8   101     5.3   857.6    0.00 
 150   11:20   0.98   73.8    31    2.7    48     5.8   857.5    0.00 
 150   11:30   0.99   73.5    30    2.1    75     5.6   857.4    0.00 
 150   11:40   1.00   73.9    30    2.9   139     7.5   857.3    0.00 
 150   11:50   1.00   74.3    29    3.9   125     7.1   857.3    0.00 
 150   12:00   1.00   74.8    30    3.3   122     6.9   857.2    0.00 
 150   12:10   0.96   75.1    28    3.8   134     8.0   857.1    0.00 
 150   12:20   1.00   75.2    29    2.6   140     5.8   857.1    0.00 
 150   12:30   0.99   75.9    27    2.8    97     6.8   857.0    0.00 
 150   12:40   0.96   76.1    29    4.0   100     7.7   856.9    0.00 
 150   12:50   0.87   76.2    29    2.1   213     6.1   856.8    0.00 
 150   13:00   0.97   77.0    28    1.3   170     4.1   856.7    0.00 
 150   13:10   0.97   76.6    32    4.5   285    12.2   856.7    0.00 
 150   13:20   0.28   75.1    30    4.3   273    14.1   856.6    0.00 
 150   13:30   0.52   72.0    31    5.2   270    11.6   856.6    0.00 
 150   13:40   0.76   74.8    32    6.9   279    16.4   856.6    0.00 
 150   13:50   0.57   74.5    31    7.3   289    14.6   856.6    0.00 
 150   14:00   0.52   72.5    30    6.3   288    13.1   856.5    0.00 
 150   14:10   0.86   75.1    32    8.8   269    14.9   856.5    0.00 
 150   14:20   0.85   75.3    30    9.4   277    14.8   856.5    0.00 
 150   14:30   0.82   75.4    30   10.1   270    16.7   856.4    0.00 
 150   14:40   0.79   75.2    29    9.7   275    15.4   856.3    0.00 
 150   14:50   0.74   75.1    29    9.4   271    17.5   856.3    0.00 
 150   15:00   0.67   74.5    30   10.3   279    17.8   856.2    0.00 
 150   15:10   0.70   74.5    28   11.2   288    20.6   856.1    0.00 
 150   15:20   0.66   74.4    29   10.4   281    19.0   856.2    0.00 
 150   15:30   0.65   74.1    29   13.1   266    20.5   856.2    0.00 
 150   15:40   0.65   74.3    29   11.6   269    22.4   856.2    0.00 
 150   15:50   0.62   73.9    30   13.2   269    22.0   856.2    0.00 
 150   16:00   0.57   73.6    29   13.3   272    20.1   856.3    0.00 
 150   16:10   0.54   73.4    29   12.8   271    21.1   856.3    0.00 
 150   16:20   0.50   73.4    28   12.3   268    21.4   856.3    0.00 
 150   16:30   0.47   73.0    28   13.1   270    19.9   856.3    0.00 
 150   16:40   0.43   72.7    27   13.9   276    20.2   856.3    0.00 
 150   16:50   0.40   72.6    28   12.2   275    20.5   856.3    0.00 
 150   17:00   0.36   72.1    27   13.6   274    22.4   856.3    0.00 
 150   17:10   0.33   71.8    28   12.7   276    20.2   856.3    0.00 
 150   17:20   0.30   71.4    27   14.0   275    22.8   856.3    0.00 
 150   17:30   0.27   71.2    26   13.9   278    19.6   856.4    0.00 
 150   17:40   0.24   70.9    26   12.4   279    22.4   856.4    0.00 
 150   17:50   0.20   70.4    27   10.1   275    18.3   856.4    0.00 
 150   18:00   0.15   69.9    27   12.3   278    20.2   856.5    0.00 
 150   18:10   0.11   69.5    27   12.0   276    19.7   856.7    0.00 
 150   18:20   0.08   68.5    28   10.8   276    17.5   856.7    0.00 
 150   18:30   0.04   67.8    28   10.0   279    17.4   856.8    0.00 
 150   18:40   0.04   67.7    28   11.4   277    21.4   856.9    0.00 
 150   18:50   0.03   67.6    28   11.0   281    17.8   856.9    0.00 
 150   19:00   0.02   67.2    28   11.6   282    19.6   857.0    0.00 
 150   19:10   0.01   67.5    28   12.4   283    19.3   857.1    0.00 
 150   19:20   0.01   66.6    30    9.9   284    16.8   857.1    0.00 
 150   19:30   0.00   66.1    30   10.0   288    20.3   857.1    0.00 
 150   19:40   0.00   65.2    32    8.2   298    16.1   857.2    0.00 
 150   19:50   0.00   64.9    32    8.0   299    14.4   857.3    0.00 
 150   20:00   0.00   64.9    32    9.3   299    16.7   857.4    0.00 
 150   20:10   0.00   64.3    34    7.8   293    13.8   857.5    0.00 
 150   20:20   0.00   64.4    33    8.8   293    15.6   857.6    0.00 
 150   20:30   0.00   64.3    33    8.1   294    12.3   857.8    0.00 
 150   20:40   0.00   63.7    34    7.2   287    11.9   857.9    0.00 
 150   20:50   0.00   63.1    34    6.8   277    11.8   858.0    0.00 

Return to Carson Valley graphs page.


Western Regional Climate Center,wrcc@dri.edu